createdAt,value
2022-12-08T00:01:20.564Z,6.05
2022-12-08T00:03:47.514Z,5.95
2022-12-08T00:06:49.044Z,7.35
2022-12-08T00:09:41.943Z,7.45
2022-12-08T00:12:17.621Z,7.22
2022-12-08T00:14:47.628Z,7.95
2022-12-08T00:17:16.330Z,7.70
2022-12-08T00:19:44.188Z,7.95
2022-12-08T00:22:12.912Z,7.75
2022-12-08T00:24:40.864Z,8.27
2022-12-08T00:27:09.813Z,8.27
2022-12-08T00:29:36.645Z,9.25
2022-12-08T00:32:03.846Z,8.93
2022-12-08T00:34:31.913Z,9.85
2022-12-08T00:36:58.718Z,9.05
2022-12-08T00:39:25.418Z,9.00
2022-12-08T00:42:10.946Z,9.02
2022-12-08T00:44:37.658Z,9.02
2022-12-08T00:47:04.907Z,8.73
2022-12-08T00:49:31.599Z,9.15
2022-12-08T00:51:58.371Z,8.65
2022-12-08T00:54:25.253Z,9.93
2022-12-08T00:56:52.085Z,8.32
2022-12-08T00:59:19.177Z,9.63
2022-12-08T01:01:46.818Z,9.15
2022-12-08T01:04:16.160Z,9.30
2022-12-08T01:06:45.816Z,9.63
2022-12-08T01:09:14.620Z,8.80
2022-12-08T01:11:41.565Z,8.40
2022-12-08T01:14:08.286Z,9.25
2022-12-08T01:16:37.241Z,9.70
2022-12-08T01:19:04.859Z,9.25
2022-12-08T01:21:31.733Z,9.00
2022-12-08T01:24:00.189Z,9.93
2022-12-08T01:26:27.141Z,9.07
2022-12-08T01:28:54.079Z,8.38
2022-12-08T01:31:22.184Z,8.38
2022-12-08T01:33:49.759Z,9.75
2022-12-08T01:36:28.149Z,9.93
2022-12-08T01:38:57.923Z,10.15
2022-12-08T01:41:27.906Z,9.82
2022-12-08T01:44:02.023Z,9.50
2022-12-08T01:46:31.524Z,9.27
2022-12-08T01:49:05.552Z,9.90
2022-12-08T01:51:38.892Z,9.55
2022-12-08T01:54:07.358Z,10.48
2022-12-08T01:56:54.159Z,10.23
2022-12-08T01:59:21.397Z,9.98
2022-12-08T02:01:48.185Z,10.10
2022-12-08T02:04:14.926Z,9.02
2022-12-08T02:06:44.959Z,9.95
2022-12-08T02:09:13.398Z,10.05
2022-12-08T02:11:40.114Z,9.70
2022-12-08T02:14:12.254Z,9.65
2022-12-08T02:17:20.123Z,9.93
2022-12-08T02:20:01.993Z,8.40
2022-12-08T02:22:44.157Z,8.98
2022-12-08T02:25:45.045Z,10.00
2022-12-08T02:28:45.325Z,10.52
2022-12-08T02:31:33.251Z,10.43
2022-12-08T02:34:09.178Z,8.70
2022-12-08T02:39:29.384Z,9.18
2022-12-08T02:42:20.553Z,10.20
2022-12-08T02:44:59.656Z,10.55
2022-12-08T02:47:28.400Z,9.63
2022-12-08T02:49:56.656Z,10.77
2022-12-08T02:52:23.245Z,10.13
2022-12-08T02:55:07.122Z,9.98
2022-12-08T02:57:45.659Z,11.48
2022-12-08T03:00:18.831Z,9.40
2022-12-08T03:03:06.848Z,9.75
2022-12-08T03:06:01.564Z,10.65
2022-12-08T03:08:51.396Z,11.50
2022-12-08T03:11:47.140Z,11.55
2022-12-08T03:14:18.057Z,11.32
2022-12-08T03:16:48.947Z,10.48
2022-12-08T03:19:23.661Z,10.75
2022-12-08T03:21:53.171Z,11.98
2022-12-08T03:24:23.302Z,12.63
2022-12-08T03:27:02.678Z,11.45
2022-12-08T03:29:32.947Z,11.93
2022-12-08T03:32:35.102Z,11.32
2022-12-08T03:35:07.133Z,11.07
2022-12-08T03:37:36.849Z,10.32
2022-12-08T03:40:06.174Z,10.35
2022-12-08T03:42:33.070Z,11.50
2022-12-08T03:44:59.895Z,10.80
2022-12-08T03:47:26.623Z,11.23
2022-12-08T03:49:54.300Z,10.52
2022-12-08T03:52:21.143Z,11.45
2022-12-08T03:54:48.357Z,10.02
2022-12-08T03:57:15.023Z,10.30
2022-12-08T03:59:41.809Z,9.38
2022-12-08T04:02:08.485Z,9.30
2022-12-08T04:04:35.211Z,9.35
2022-12-08T04:07:01.968Z,7.97
2022-12-08T04:09:28.601Z,8.63
2022-12-08T04:11:55.327Z,10.38
2022-12-08T04:14:25.932Z,8.38
2022-12-08T04:16:52.640Z,9.35
2022-12-08T04:19:19.869Z,8.80
2022-12-08T04:21:46.611Z,9.30
2022-12-08T04:24:13.255Z,8.57
2022-12-08T04:26:39.887Z,8.95
2022-12-08T04:29:06.629Z,9.45
2022-12-08T04:31:33.380Z,8.23
2022-12-08T04:34:00.177Z,8.30
2022-12-08T04:36:26.976Z,8.65
2022-12-08T04:38:54.102Z,8.25
2022-12-08T04:41:21.207Z,8.27
2022-12-08T04:43:48.023Z,7.88
2022-12-08T04:46:14.700Z,8.13
2022-12-08T04:48:41.634Z,7.18
2022-12-08T04:51:21.662Z,8.30
2022-12-08T04:53:48.466Z,7.93
2022-12-08T04:56:18.047Z,9.57
2022-12-08T04:58:45.772Z,9.20
2022-12-08T05:01:13.444Z,9.50
2022-12-08T05:03:40.159Z,8.98
2022-12-08T05:06:07.562Z,9.57
2022-12-08T05:08:35.112Z,8.55
2022-12-08T05:11:04.325Z,8.68
2022-12-08T05:13:31.589Z,8.90
2022-12-08T05:16:10.704Z,9.07
2022-12-08T05:18:37.986Z,8.07
2022-12-08T05:21:07.001Z,7.82
2022-12-08T05:23:34.367Z,8.63
2022-12-08T05:26:01.578Z,7.65
2022-12-08T05:28:44.286Z,8.40
2022-12-08T05:31:13.234Z,8.75
2022-12-08T05:33:40.678Z,7.97
2022-12-08T05:36:08.536Z,8.13
2022-12-08T05:38:35.583Z,7.63
2022-12-08T05:41:02.730Z,6.97
2022-12-08T05:43:29.544Z,7.68
2022-12-08T05:45:56.626Z,7.97
2022-12-08T05:48:23.355Z,7.40
2022-12-08T05:50:51.225Z,8.27
2022-12-08T05:53:20.331Z,6.93
2022-12-08T05:55:47.936Z,6.30
2022-12-08T05:58:19.907Z,7.32
2022-12-08T06:00:47.727Z,7.13
2022-12-08T06:03:16.444Z,7.75
2022-12-08T06:05:45.021Z,7.70
2022-12-08T06:08:12.580Z,7.20
2022-12-08T06:10:44.316Z,7.15
2022-12-08T06:13:11.472Z,8.75
2022-12-08T06:15:39.353Z,7.65
2022-12-08T06:18:06.923Z,7.53
2022-12-08T06:20:35.054Z,7.10
2022-12-08T06:23:02.207Z,7.78
2022-12-08T06:25:29.044Z,7.43
2022-12-08T06:27:55.768Z,7.32
2022-12-08T06:30:22.559Z,7.90
2022-12-08T06:32:51.670Z,7.25
2022-12-08T06:35:18.405Z,7.05
2022-12-08T06:37:45.056Z,7.47
2022-12-08T06:40:12.191Z,7.57
2022-12-08T06:42:45.216Z,7.15
2022-12-08T06:45:13.996Z,7.15
2022-12-08T06:47:40.861Z,7.05
2022-12-08T06:50:09.083Z,6.60
2022-12-08T06:52:40.845Z,6.93
2022-12-08T06:55:29.127Z,6.95
2022-12-08T06:57:59.526Z,7.22
2022-12-08T07:00:26.237Z,6.70
2022-12-08T07:02:52.937Z,7.00
2022-12-08T07:05:19.860Z,7.05
2022-12-08T07:07:46.718Z,7.20
2022-12-08T07:10:13.372Z,7.25
2022-12-08T07:12:39.999Z,7.20
2022-12-08T07:15:07.446Z,7.05
2022-12-08T07:17:34.059Z,6.97
2022-12-08T07:20:00.727Z,6.78
2022-12-08T07:22:27.489Z,6.72
2022-12-08T07:24:54.146Z,7.45
2022-12-08T07:27:20.754Z,6.53
2022-12-08T07:29:47.511Z,7.70
2022-12-08T07:32:15.761Z,5.60
2022-12-08T07:35:00.168Z,6.95
2022-12-08T07:37:26.808Z,6.82
2022-12-08T07:39:53.523Z,5.90
2022-12-08T07:42:20.132Z,6.82
2022-12-08T07:44:46.744Z,6.50
2022-12-08T07:47:13.410Z,6.50
2022-12-08T07:49:40.048Z,6.32
2022-12-08T07:52:06.816Z,5.97
2022-12-08T07:54:33.585Z,6.47
2022-12-08T07:57:00.271Z,6.07
2022-12-08T07:59:26.901Z,5.88
2022-12-08T08:02:21.035Z,5.55
2022-12-08T08:04:40.381Z,4.68
2022-12-08T08:07:07.121Z,5.10
2022-12-08T08:09:34.364Z,5.45
2022-12-08T08:12:29.639Z,5.50
2022-12-08T08:14:47.728Z,4.75
2022-12-08T08:17:14.453Z,5.07
2022-12-08T08:19:41.155Z,5.90
2022-12-08T08:22:07.898Z,5.63
2022-12-08T08:24:34.726Z,4.45
2022-12-08T08:27:01.358Z,4.50
2022-12-08T08:29:28.090Z,4.90
2022-12-08T08:31:54.898Z,4.15
2022-12-08T08:34:21.512Z,4.10
2022-12-08T08:36:48.325Z,4.55
2022-12-08T08:39:15.963Z,4.18
2022-12-08T08:41:42.684Z,3.25
2022-12-08T08:44:09.387Z,3.95
2022-12-08T08:46:36.222Z,4.05
2022-12-08T08:49:02.993Z,3.90
2022-12-08T08:51:29.840Z,4.20
2022-12-08T08:53:57.250Z,4.55
2022-12-08T08:56:24.314Z,4.03
2022-12-08T08:58:52.855Z,4.00
2022-12-08T09:01:22.226Z,3.65
2022-12-08T09:03:49.468Z,3.83
2022-12-08T09:06:17.175Z,4.00
2022-12-08T09:08:44.297Z,3.25
2022-12-08T09:11:12.167Z,3.67
2022-12-08T09:13:41.078Z,3.70
2022-12-08T09:16:09.158Z,3.10
2022-12-08T09:18:35.943Z,2.88
2022-12-08T09:21:08.334Z,3.70
2022-12-08T09:23:36.034Z,3.85
2022-12-08T09:26:05.122Z,3.38
2022-12-08T09:28:33.097Z,3.33
2022-12-08T09:31:00.277Z,3.58
2022-12-08T09:33:27.168Z,3.25
2022-12-08T09:35:53.994Z,3.80
2022-12-08T09:38:20.599Z,3.40
2022-12-08T09:40:53.045Z,3.08
2022-12-08T09:43:42.692Z,3.00
2022-12-08T09:46:11.594Z,3.55
2022-12-08T09:48:44.577Z,4.18
2022-12-08T09:51:13.684Z,3.35
2022-12-08T09:53:49.219Z,3.25
2022-12-08T09:56:19.705Z,3.50
2022-12-08T09:59:24.586Z,3.72
2022-12-08T10:01:51.543Z,4.03
2022-12-08T10:04:23.323Z,3.50
2022-12-08T10:06:59.995Z,3.50
2022-12-08T10:09:48.579Z,3.60
2022-12-08T10:12:21.418Z,3.08
2022-12-08T10:14:55.340Z,5.10
2022-12-08T10:17:40.668Z,6.43
2022-12-08T10:20:20.110Z,4.05
2022-12-08T10:22:53.427Z,3.78
2022-12-08T10:25:28.228Z,4.03
2022-12-08T10:28:01.072Z,3.88
2022-12-08T10:30:27.707Z,3.65
2022-12-08T10:32:55.109Z,4.78
2022-12-08T10:35:23.513Z,4.10
2022-12-08T10:38:01.910Z,4.47
2022-12-08T10:40:40.515Z,4.18
2022-12-08T10:43:17.497Z,3.45
2022-12-08T10:45:45.234Z,4.18
2022-12-08T10:48:17.281Z,3.85
2022-12-08T10:50:47.591Z,4.60
2022-12-08T10:53:21.274Z,4.78
2022-12-08T10:55:51.181Z,3.72
2022-12-08T10:58:44.335Z,6.53
2022-12-08T11:01:21.741Z,5.30
2022-12-08T11:03:57.018Z,4.65
2022-12-08T11:06:32.945Z,5.15
2022-12-08T11:11:48.387Z,5.15
2022-12-08T11:14:27.830Z,4.10
2022-12-08T11:17:09.586Z,4.28
2022-12-08T11:19:55.069Z,4.47
2022-12-08T11:22:33.534Z,4.05
2022-12-08T11:25:12.363Z,3.75
2022-12-08T11:27:43.714Z,3.63
2022-12-08T11:30:22.263Z,3.90
2022-12-08T11:32:57.579Z,3.88
2022-12-08T11:35:28.939Z,3.88
2022-12-08T11:38:19.780Z,3.88
2022-12-08T11:40:51.915Z,4.18
2022-12-08T11:43:37.048Z,5.05
2022-12-08T11:46:12.500Z,5.70
2022-12-08T11:48:51.214Z,4.78
2022-12-08T11:51:38.100Z,4.72
2022-12-08T11:54:36.100Z,4.43
2022-12-08T11:57:06.048Z,4.30
2022-12-08T11:59:38.488Z,4.53
2022-12-08T12:02:12.232Z,4.60
2022-12-08T12:05:09.336Z,4.40
2022-12-08T12:08:01.106Z,4.20
2022-12-08T12:11:00.267Z,3.92
2022-12-08T12:13:35.734Z,4.22
2022-12-08T12:16:17.734Z,4.72
2022-12-08T12:18:47.835Z,3.83
2022-12-08T12:21:20.104Z,4.22
2022-12-08T12:23:53.717Z,4.07
2022-12-08T12:26:26.624Z,3.53
2022-12-08T12:28:57.544Z,4.07
2022-12-08T12:31:43.490Z,4.57
2022-12-08T12:34:36.605Z,3.83
2022-12-08T12:37:15.151Z,3.88
2022-12-08T12:39:57.924Z,3.47
2022-12-08T12:42:50.971Z,3.78
2022-12-08T12:45:17.565Z,4.00
2022-12-08T12:47:48.627Z,3.97
2022-12-08T12:50:34.321Z,3.17
2022-12-08T12:53:09.185Z,3.53
2022-12-08T12:56:02.488Z,3.33
2022-12-08T12:58:29.638Z,3.40
2022-12-08T13:01:14.263Z,3.60
2022-12-08T13:03:44.126Z,3.80
2022-12-08T13:06:14.750Z,3.05
2022-12-08T13:08:51.243Z,3.35
2022-12-08T13:11:18.027Z,3.28
2022-12-08T13:13:57.848Z,5.32
2022-12-08T13:16:27.223Z,6.35
2022-12-08T13:18:59.139Z,5.50
2022-12-08T13:21:36.034Z,4.70
2022-12-08T13:24:14.717Z,5.75
2022-12-08T13:26:49.282Z,6.00
2022-12-08T13:29:25.661Z,3.42
2022-12-08T13:31:56.333Z,3.92
2022-12-08T13:34:49.182Z,4.05
2022-12-08T13:37:26.939Z,3.75
2022-12-08T13:40:09.090Z,4.47
2022-12-08T13:42:35.848Z,3.45
2022-12-08T13:45:27.886Z,3.00
2022-12-08T13:48:58.989Z,3.65
2022-12-08T13:57:06.870Z,3.65
2022-12-08T13:59:36.171Z,4.20
2022-12-08T14:02:18.252Z,4.07
2022-12-08T14:07:38.967Z,3.05
2022-12-08T14:10:14.783Z,3.58
2022-12-08T14:12:46.223Z,3.75
2022-12-08T14:15:15.609Z,3.20
2022-12-08T14:17:51.360Z,3.65
2022-12-08T14:20:31.609Z,4.18
2022-12-08T14:22:59.852Z,4.15
2022-12-08T14:25:30.205Z,3.47
2022-12-08T14:28:01.916Z,4.57
2022-12-08T14:30:32.746Z,3.40
2022-12-08T14:33:01.279Z,3.50
2022-12-08T14:35:28.002Z,3.03
2022-12-08T14:37:58.823Z,3.45
2022-12-08T14:40:36.763Z,3.90
2022-12-08T14:43:09.309Z,2.97
2022-12-08T14:45:41.686Z,3.00
2022-12-08T14:48:36.409Z,3.00
2022-12-08T14:51:12.634Z,3.47
2022-12-08T14:53:58.837Z,3.33
2022-12-08T14:59:15.348Z,3.22
2022-12-08T15:01:43.938Z,3.13
2022-12-08T15:04:25.781Z,3.95
2022-12-08T15:07:05.557Z,3.22
2022-12-08T15:09:37.629Z,3.78
2022-12-08T15:12:27.093Z,3.47
2022-12-08T15:15:09.635Z,3.55
2022-12-08T15:17:45.059Z,4.35
2022-12-08T15:20:39.214Z,3.95
2022-12-08T15:23:06.773Z,4.10
2022-12-08T15:25:33.608Z,4.20
2022-12-08T15:28:02.643Z,4.43
2022-12-08T15:30:30.005Z,4.07
2022-12-08T15:32:57.655Z,3.83
2022-12-08T15:35:24.291Z,4.10
2022-12-08T15:37:51.094Z,4.72
2022-12-08T15:40:20.012Z,4.90
2022-12-08T15:42:47.051Z,5.93
2022-12-08T15:45:15.412Z,6.05
2022-12-08T15:47:43.464Z,4.90
2022-12-08T15:50:18.658Z,4.75
2022-12-08T15:52:45.444Z,4.97
2022-12-08T15:55:14.076Z,4.93
2022-12-08T15:58:44.555Z,5.07
2022-12-08T16:04:19.948Z,6.15
2022-12-08T16:09:13.463Z,6.63
2022-12-08T16:12:08.412Z,7.15
2022-12-08T16:17:24.195Z,7.28
2022-12-08T16:19:53.551Z,7.68
2022-12-08T16:25:20.344Z,8.43
2022-12-08T16:28:12.565Z,9.68
2022-12-08T16:30:40.557Z,9.52
2022-12-08T16:33:07.392Z,10.70
2022-12-08T16:35:34.155Z,11.23
2022-12-08T16:38:01.130Z,11.30
2022-12-08T16:40:31.213Z,9.13
2022-12-08T16:42:58.615Z,10.57
2022-12-08T16:45:31.038Z,12.13
2022-12-08T16:48:01.830Z,15.02
2022-12-08T16:50:31.272Z,16.00
2022-12-08T16:53:04.768Z,14.52
2022-12-08T16:55:31.780Z,13.48
2022-12-08T16:57:58.640Z,13.45
2022-12-08T17:00:28.552Z,14.57
2022-12-08T17:02:55.946Z,11.98
2022-12-08T17:05:25.070Z,12.55
2022-12-08T17:07:53.625Z,13.05
2022-12-08T17:10:23.597Z,13.07
2022-12-08T17:12:50.420Z,11.07
2022-12-08T17:15:19.801Z,11.85
2022-12-08T17:17:47.069Z,11.68
2022-12-08T17:20:19.464Z,10.55
2022-12-08T17:22:46.452Z,10.10
2022-12-08T17:25:13.649Z,11.45
2022-12-08T17:27:40.908Z,10.82
2022-12-08T17:30:09.922Z,11.60
2022-12-08T17:32:38.073Z,10.10
2022-12-08T17:35:05.781Z,11.45
2022-12-08T17:37:32.834Z,12.18
2022-12-08T17:39:59.655Z,10.40
2022-12-08T17:42:27.324Z,11.88
2022-12-08T17:44:54.943Z,9.88
2022-12-08T17:47:22.278Z,10.80
2022-12-08T17:49:49.053Z,10.52
2022-12-08T17:52:15.782Z,10.65
2022-12-08T17:54:42.576Z,11.98
2022-12-08T17:57:09.251Z,10.07
2022-12-08T17:59:35.937Z,10.25
2022-12-08T18:02:05.054Z,9.50
2022-12-08T18:04:31.843Z,10.13
2022-12-08T18:07:03.924Z,10.77
2022-12-08T18:09:31.438Z,12.40
2022-12-08T18:11:58.247Z,12.10
2022-12-08T18:14:24.937Z,10.82
2022-12-08T18:16:51.958Z,11.10
2022-12-08T18:19:18.754Z,10.07
2022-12-08T18:21:45.483Z,10.52
2022-12-08T18:24:19.364Z,12.30
2022-12-08T18:26:47.228Z,9.77
2022-12-08T18:29:13.885Z,10.93
2022-12-08T18:31:40.613Z,10.00
2022-12-08T18:34:07.269Z,11.70
2022-12-08T18:36:34.053Z,11.00
2022-12-08T18:39:05.834Z,10.55
2022-12-08T18:41:35.564Z,10.40
2022-12-08T18:44:02.424Z,11.98
2022-12-08T18:46:29.700Z,12.30
2022-12-08T18:48:56.384Z,12.65
2022-12-08T18:51:24.483Z,11.25
2022-12-08T18:53:52.309Z,11.05
2022-12-08T18:56:23.881Z,11.68
2022-12-08T18:58:50.612Z,12.90
2022-12-08T19:01:17.716Z,10.23
2022-12-08T19:03:58.507Z,10.13
2022-12-08T19:06:31.625Z,9.82
2022-12-08T19:08:58.700Z,11.38
2022-12-08T19:11:27.683Z,11.00
2022-12-08T19:13:55.690Z,10.75
2022-12-08T19:16:26.095Z,11.05
2022-12-08T19:18:53.424Z,12.00
2022-12-08T19:21:22.561Z,12.63
2022-12-08T19:23:49.509Z,15.63
2022-12-08T19:26:26.840Z,17.38
2022-12-08T19:28:58.141Z,19.83
2022-12-08T19:34:14.170Z,18.08
2022-12-08T19:36:59.072Z,19.05
2022-12-08T19:39:46.382Z,17.83
2022-12-08T19:42:41.317Z,17.85
2022-12-08T19:45:26.272Z,18.00
2022-12-08T19:47:59.313Z,16.30
2022-12-08T19:50:40.959Z,14.60
2022-12-08T19:53:14.848Z,13.85
2022-12-08T19:55:48.982Z,15.18
2022-12-08T19:58:15.967Z,14.40
2022-12-08T20:00:46.801Z,15.07
2022-12-08T20:03:19.947Z,14.65
2022-12-08T20:05:57.512Z,14.00
2022-12-08T20:08:24.839Z,15.10
2022-12-08T20:10:59.496Z,16.48
2022-12-08T20:13:42.094Z,17.95
2022-12-08T20:16:10.056Z,14.93
2022-12-08T20:18:48.431Z,15.13
2022-12-08T20:21:23.344Z,14.52
2022-12-08T20:23:50.548Z,12.73
2022-12-08T20:26:23.965Z,14.93
2022-12-08T20:28:51.216Z,13.90
2022-12-08T20:31:26.824Z,13.32
2022-12-08T20:34:05.799Z,10.35
2022-12-08T20:36:32.978Z,12.40
2022-12-08T20:38:59.726Z,10.20
2022-12-08T20:41:27.578Z,9.82
2022-12-08T20:43:54.552Z,11.05
2022-12-08T20:46:25.166Z,10.40
2022-12-08T20:48:52.765Z,10.20
2022-12-08T20:51:19.953Z,11.95
2022-12-08T20:53:47.551Z,10.00
2022-12-08T20:56:18.965Z,10.07
2022-12-08T20:58:46.162Z,10.73
2022-12-08T21:01:15.745Z,11.00
2022-12-08T21:03:44.820Z,14.63
2022-12-08T21:06:12.771Z,15.95
2022-12-08T21:08:40.317Z,15.07
2022-12-08T21:11:08.040Z,15.45
2022-12-08T21:13:37.161Z,16.77
2022-12-08T21:16:04.934Z,16.65
2022-12-08T21:18:38.928Z,14.90
2022-12-08T21:21:12.743Z,13.10
2022-12-08T21:23:40.527Z,13.38
2022-12-08T21:26:15.594Z,13.85
2022-12-08T21:28:43.265Z,13.07
2022-12-08T21:31:12.535Z,12.18
2022-12-08T21:33:39.707Z,13.10
2022-12-08T21:36:09.789Z,14.40
2022-12-08T21:38:37.821Z,15.25
2022-12-08T21:41:16.139Z,13.70
2022-12-08T21:43:43.731Z,13.43
2022-12-08T21:46:19.480Z,13.27
2022-12-08T21:48:46.533Z,13.02
2022-12-08T21:51:13.294Z,12.73
2022-12-08T21:53:40.167Z,13.10
2022-12-08T21:56:10.285Z,11.73
2022-12-08T21:58:37.290Z,11.75
2022-12-08T22:01:08.846Z,11.50
2022-12-08T22:03:36.475Z,11.20
2022-12-08T22:06:11.522Z,11.25
2022-12-08T22:08:39.646Z,10.18
2022-12-08T22:11:08.108Z,10.55
2022-12-08T22:13:36.726Z,11.70
2022-12-08T22:16:06.188Z,11.27
2022-12-08T22:18:34.034Z,10.75
2022-12-08T22:21:01.250Z,11.48
2022-12-08T22:23:28.983Z,10.93
2022-12-08T22:26:00.072Z,11.55
2022-12-08T22:28:31.849Z,11.73
2022-12-08T22:30:58.735Z,11.65
2022-12-08T22:33:25.624Z,11.43
2022-12-08T22:36:03.515Z,10.70
2022-12-08T22:38:35.141Z,10.15
2022-12-08T22:41:04.997Z,10.23
2022-12-08T22:43:31.915Z,11.15
2022-12-08T22:45:58.858Z,10.38
2022-12-08T22:48:26.769Z,11.75
2022-12-08T22:50:59.759Z,12.55
2022-12-08T22:53:26.876Z,10.88
2022-12-08T22:55:53.792Z,11.15
2022-12-08T22:58:20.568Z,10.90
2022-12-08T23:00:47.829Z,11.55
2022-12-08T23:03:14.598Z,10.50
2022-12-08T23:05:41.628Z,11.23
2022-12-08T23:08:09.371Z,9.63
2022-12-08T23:10:36.341Z,9.48
2022-12-08T23:13:04.209Z,10.65
2022-12-08T23:15:31.616Z,12.25
2022-12-08T23:17:58.714Z,10.45
2022-12-08T23:20:25.786Z,9.95
2022-12-08T23:22:52.636Z,10.35
2022-12-08T23:25:19.485Z,10.50
2022-12-08T23:27:46.538Z,11.52
2022-12-08T23:30:14.155Z,9.70
2022-12-08T23:32:41.673Z,9.25
2022-12-08T23:35:09.041Z,9.50
2022-12-08T23:37:35.853Z,10.65
2022-12-08T23:40:03.045Z,11.65
2022-12-08T23:42:30.593Z,10.30
2022-12-08T23:44:57.541Z,11.00
2022-12-08T23:47:24.369Z,9.55
2022-12-08T23:49:51.183Z,11.43
2022-12-08T23:52:18.176Z,10.10
2022-12-08T23:54:45.140Z,9.07
2022-12-08T23:57:11.950Z,10.10
2022-12-08T23:59:39.122Z,9.75
